sensor_id;sensor_type;location;lat;lon;timestamp;P1;durP1;ratioP1;P2;durP2;ratioP2
61785;SDS011;47692;53.714;11.372;2023-02-04T00:01:29;4.38;;;1.67;;
61785;SDS011;47692;53.714;11.372;2023-02-04T00:03:54;3.38;;;1.67;;
61785;SDS011;47692;53.714;11.372;2023-02-04T00:06:20;6.40;;;1.40;;
61785;SDS011;47692;53.714;11.372;2023-02-04T00:08:45;2.47;;;1.17;;
61785;SDS011;47692;53.714;11.372;2023-02-04T00:11:10;4.57;;;1.52;;
61785;SDS011;47692;53.714;11.372;2023-02-04T00:13:36;3.20;;;1.13;;
61785;SDS011;47692;53.714;11.372;2023-02-04T00:16:01;2.90;;;1.25;;
61785;SDS011;47692;53.714;11.372;2023-02-04T00:18:27;3.55;;;1.20;;
61785;SDS011;47692;53.714;11.372;2023-02-04T00:20:53;3.70;;;1.30;;
61785;SDS011;47692;53.714;11.372;2023-02-04T00:23:18;2.80;;;1.30;;
61785;SDS011;47692;53.714;11.372;2023-02-04T00:25:44;2.60;;;1.30;;
61785;SDS011;47692;53.714;11.372;2023-02-04T00:28:09;1.88;;;1.00;;
61785;SDS011;47692;53.714;11.372;2023-02-04T00:30:34;2.53;;;0.95;;
61785;SDS011;47692;53.714;11.372;2023-02-04T00:33:00;3.00;;;1.05;;
61785;SDS011;47692;53.714;11.372;2023-02-04T00:35:25;2.83;;;1.10;;
61785;SDS011;47692;53.714;11.372;2023-02-04T00:37:51;3.33;;;1.05;;
61785;SDS011;47692;53.714;11.372;2023-02-04T00:40:16;3.03;;;1.10;;
61785;SDS011;47692;53.714;11.372;2023-02-04T00:42:41;2.83;;;1.52;;
61785;SDS011;47692;53.714;11.372;2023-02-04T00:45:08;4.80;;;2.00;;
61785;SDS011;47692;53.714;11.372;2023-02-04T00:47:34;2.13;;;1.10;;
61785;SDS011;47692;53.714;11.372;2023-02-04T00:50:00;2.67;;;1.15;;
61785;SDS011;47692;53.714;11.372;2023-02-04T00:52:25;3.65;;;1.48;;
61785;SDS011;47692;53.714;11.372;2023-02-04T00:54:51;4.60;;;1.25;;
61785;SDS011;47692;53.714;11.372;2023-02-04T00:57:16;1.92;;;1.08;;
61785;SDS011;47692;53.714;11.372;2023-02-04T00:59:43;2.22;;;1.00;;
61785;SDS011;47692;53.714;11.372;2023-02-04T01:02:08;3.83;;;1.40;;
61785;SDS011;47692;53.714;11.372;2023-02-04T01:04:33;3.60;;;1.20;;
61785;SDS011;47692;53.714;11.372;2023-02-04T01:06:59;2.00;;;1.13;;
61785;SDS011;47692;53.714;11.372;2023-02-04T01:09:24;6.85;;;2.05;;
61785;SDS011;47692;53.714;11.372;2023-02-04T01:11:49;2.83;;;1.35;;
61785;SDS011;47692;53.714;11.372;2023-02-04T01:14:15;3.20;;;1.55;;
61785;SDS011;47692;53.714;11.372;2023-02-04T01:16:40;3.97;;;1.40;;
61785;SDS011;47692;53.714;11.372;2023-02-04T01:19:05;3.45;;;1.30;;
61785;SDS011;47692;53.714;11.372;2023-02-04T01:21:31;5.22;;;1.40;;
61785;SDS011;47692;53.714;11.372;2023-02-04T01:23:56;3.72;;;1.30;;
61785;SDS011;47692;53.714;11.372;2023-02-04T01:26:22;3.92;;;1.50;;
61785;SDS011;47692;53.714;11.372;2023-02-04T01:28:47;2.65;;;1.15;;
61785;SDS011;47692;53.714;11.372;2023-02-04T01:31:13;8.18;;;0.98;;
61785;SDS011;47692;53.714;11.372;2023-02-04T01:33:39;2.60;;;1.10;;
61785;SDS011;47692;53.714;11.372;2023-02-04T01:36:04;4.97;;;1.50;;
61785;SDS011;47692;53.714;11.372;2023-02-04T01:38:30;1.23;;;1.02;;
61785;SDS011;47692;53.714;11.372;2023-02-04T01:40:55;3.00;;;0.90;;
61785;SDS011;47692;53.714;11.372;2023-02-04T01:43:21;2.85;;;1.00;;
61785;SDS011;47692;53.714;11.372;2023-02-04T01:45:47;3.78;;;0.93;;
61785;SDS011;47692;53.714;11.372;2023-02-04T01:48:13;2.53;;;1.00;;
61785;SDS011;47692;53.714;11.372;2023-02-04T01:50:45;1.25;;;0.80;;
61785;SDS011;47692;53.714;11.372;2023-02-04T01:53:15;3.10;;;0.80;;
61785;SDS011;47692;53.714;11.372;2023-02-04T01:55:44;1.27;;;0.55;;
61785;SDS011;47692;53.714;11.372;2023-02-04T01:58:10;1.48;;;0.80;;
61785;SDS011;47692;53.714;11.372;2023-02-04T02:00:36;2.25;;;0.70;;
61785;SDS011;47692;53.714;11.372;2023-02-04T02:03:03;1.90;;;0.70;;
61785;SDS011;47692;53.714;11.372;2023-02-04T02:05:35;2.10;;;0.70;;
61785;SDS011;47692;53.714;11.372;2023-02-04T02:08:04;6.68;;;0.70;;
61785;SDS011;47692;53.714;11.372;2023-02-04T02:10:31;2.05;;;0.93;;
61785;SDS011;47692;53.714;11.372;2023-02-04T02:12:57;2.58;;;1.00;;
61785;SDS011;47692;53.714;11.372;2023-02-04T02:15:23;1.05;;;0.80;;
61785;SDS011;47692;53.714;11.372;2023-02-04T02:17:49;2.90;;;0.68;;
61785;SDS011;47692;53.714;11.372;2023-02-04T02:20:16;1.92;;;0.80;;
61785;SDS011;47692;53.714;11.372;2023-02-04T02:25:28;1.90;;;1.08;;
61785;SDS011;47692;53.714;11.372;2023-02-04T02:27:54;1.30;;;0.73;;
61785;SDS011;47692;53.714;11.372;2023-02-04T02:30:20;2.88;;;1.00;;
61785;SDS011;47692;53.714;11.372;2023-02-04T02:32:46;1.52;;;0.80;;
61785;SDS011;47692;53.714;11.372;2023-02-04T02:35:14;5.63;;;1.27;;
61785;SDS011;47692;53.714;11.372;2023-02-04T02:37:40;2.03;;;0.82;;
61785;SDS011;47692;53.714;11.372;2023-02-04T02:40:06;3.13;;;0.90;;
61785;SDS011;47692;53.714;11.372;2023-02-04T02:42:32;1.65;;;0.98;;
61785;SDS011;47692;53.714;11.372;2023-02-04T02:44:58;1.95;;;0.90;;
61785;SDS011;47692;53.714;11.372;2023-02-04T02:47:24;2.13;;;0.70;;
61785;SDS011;47692;53.714;11.372;2023-02-04T02:49:51;3.03;;;1.00;;
61785;SDS011;47692;53.714;11.372;2023-02-04T02:52:17;2.90;;;0.85;;
61785;SDS011;47692;53.714;11.372;2023-02-04T02:54:43;2.53;;;0.60;;
61785;SDS011;47692;53.714;11.372;2023-02-04T02:57:10;1.58;;;0.80;;
61785;SDS011;47692;53.714;11.372;2023-02-04T02:59:38;3.22;;;1.10;;
61785;SDS011;47692;53.714;11.372;2023-02-04T03:02:03;1.02;;;0.70;;
61785;SDS011;47692;53.714;11.372;2023-02-04T03:04:30;2.22;;;0.80;;
61785;SDS011;47692;53.714;11.372;2023-02-04T03:07:00;1.80;;;0.80;;
61785;SDS011;47692;53.714;11.372;2023-02-04T03:09:26;2.60;;;0.88;;
61785;SDS011;47692;53.714;11.372;2023-02-04T03:11:52;2.65;;;0.90;;
61785;SDS011;47692;53.714;11.372;2023-02-04T03:14:18;1.20;;;0.70;;
61785;SDS011;47692;53.714;11.372;2023-02-04T03:16:44;3.67;;;1.15;;
61785;SDS011;47692;53.714;11.372;2023-02-04T03:19:10;1.50;;;0.70;;
61785;SDS011;47692;53.714;11.372;2023-02-04T03:21:36;2.25;;;1.17;;
61785;SDS011;47692;53.714;11.372;2023-02-04T03:24:02;1.48;;;0.85;;
61785;SDS011;47692;53.714;11.372;2023-02-04T03:26:28;2.55;;;1.25;;
61785;SDS011;47692;53.714;11.372;2023-02-04T03:28:53;0.70;;;0.63;;
61785;SDS011;47692;53.714;11.372;2023-02-04T03:31:19;1.35;;;0.70;;
61785;SDS011;47692;53.714;11.372;2023-02-04T03:33:44;0.88;;;0.60;;
61785;SDS011;47692;53.714;11.372;2023-02-04T03:36:10;2.30;;;1.00;;
61785;SDS011;47692;53.714;11.372;2023-02-04T03:38:35;3.10;;;1.10;;
61785;SDS011;47692;53.714;11.372;2023-02-04T03:41:01;2.25;;;0.73;;
61785;SDS011;47692;53.714;11.372;2023-02-04T03:43:26;2.78;;;1.00;;
61785;SDS011;47692;53.714;11.372;2023-02-04T03:45:52;2.03;;;1.02;;
61785;SDS011;47692;53.714;11.372;2023-02-04T03:48:17;2.17;;;0.90;;
61785;SDS011;47692;53.714;11.372;2023-02-04T03:50:42;1.92;;;0.93;;
61785;SDS011;47692;53.714;11.372;2023-02-04T03:53:08;2.20;;;0.90;;
61785;SDS011;47692;53.714;11.372;2023-02-04T03:55:33;1.75;;;0.82;;
61785;SDS011;47692;53.714;11.372;2023-02-04T03:58:00;3.75;;;1.42;;
61785;SDS011;47692;53.714;11.372;2023-02-04T04:00:25;1.55;;;0.90;;
61785;SDS011;47692;53.714;11.372;2023-02-04T04:02:51;2.05;;;1.08;;
61785;SDS011;47692;53.714;11.372;2023-02-04T04:05:16;1.42;;;0.98;;
61785;SDS011;47692;53.714;11.372;2023-02-04T04:07:42;1.65;;;1.02;;
61785;SDS011;47692;53.714;11.372;2023-02-04T04:10:07;6.15;;;1.20;;
61785;SDS011;47692;53.714;11.372;2023-02-04T04:12:33;3.20;;;1.38;;
61785;SDS011;47692;53.714;11.372;2023-02-04T04:14:58;3.08;;;1.00;;
61785;SDS011;47692;53.714;11.372;2023-02-04T04:17:23;4.38;;;1.60;;
61785;SDS011;47692;53.714;11.372;2023-02-04T04:19:48;1.77;;;1.23;;
61785;SDS011;47692;53.714;11.372;2023-02-04T04:22:14;1.70;;;1.00;;
61785;SDS011;47692;53.714;11.372;2023-02-04T04:24:39;1.52;;;0.95;;
61785;SDS011;47692;53.714;11.372;2023-02-04T04:27:05;1.42;;;1.05;;
61785;SDS011;47692;53.714;11.372;2023-02-04T04:29:30;2.72;;;1.40;;
61785;SDS011;47692;53.714;11.372;2023-02-04T04:31:56;3.17;;;1.30;;
61785;SDS011;47692;53.714;11.372;2023-02-04T04:34:21;2.70;;;0.90;;
61785;SDS011;47692;53.714;11.372;2023-02-04T04:36:46;2.75;;;0.90;;
61785;SDS011;47692;53.714;11.372;2023-02-04T04:39:12;2.35;;;1.10;;
61785;SDS011;47692;53.714;11.372;2023-02-04T04:41:37;5.72;;;1.13;;
61785;SDS011;47692;53.714;11.372;2023-02-04T04:44:02;3.85;;;1.10;;
61785;SDS011;47692;53.714;11.372;2023-02-04T04:46:27;1.63;;;0.93;;
61785;SDS011;47692;53.714;11.372;2023-02-04T04:48:53;1.58;;;1.17;;
61785;SDS011;47692;53.714;11.372;2023-02-04T04:51:18;2.53;;;1.25;;
61785;SDS011;47692;53.714;11.372;2023-02-04T04:53:43;1.33;;;0.98;;
61785;SDS011;47692;53.714;11.372;2023-02-04T04:56:09;2.75;;;0.85;;
61785;SDS011;47692;53.714;11.372;2023-02-04T04:58:34;2.90;;;1.30;;
61785;SDS011;47692;53.714;11.372;2023-02-04T05:00:59;2.13;;;1.40;;
61785;SDS011;47692;53.714;11.372;2023-02-04T05:03:24;1.65;;;0.82;;
61785;SDS011;47692;53.714;11.372;2023-02-04T05:05:50;6.00;;;1.23;;
61785;SDS011;47692;53.714;11.372;2023-02-04T05:08:15;2.90;;;1.55;;
61785;SDS011;47692;53.714;11.372;2023-02-04T05:10:41;1.40;;;0.90;;
61785;SDS011;47692;53.714;11.372;2023-02-04T05:13:07;3.50;;;0.98;;
61785;SDS011;47692;53.714;11.372;2023-02-04T05:15:34;2.55;;;1.00;;
61785;SDS011;47692;53.714;11.372;2023-02-04T05:17:59;1.35;;;1.00;;
61785;SDS011;47692;53.714;11.372;2023-02-04T05:20:25;1.10;;;0.70;;
61785;SDS011;47692;53.714;11.372;2023-02-04T05:22:50;1.98;;;0.93;;
61785;SDS011;47692;53.714;11.372;2023-02-04T05:25:15;2.65;;;0.85;;
61785;SDS011;47692;53.714;11.372;2023-02-04T05:27:42;1.50;;;0.90;;
61785;SDS011;47692;53.714;11.372;2023-02-04T05:30:08;6.72;;;1.55;;
61785;SDS011;47692;53.714;11.372;2023-02-04T05:32:35;7.65;;;3.67;;
61785;SDS011;47692;53.714;11.372;2023-02-04T05:35:00;4.15;;;2.15;;
61785;SDS011;47692;53.714;11.372;2023-02-04T05:37:26;1.80;;;1.17;;
61785;SDS011;47692;53.714;11.372;2023-02-04T05:39:51;1.45;;;0.82;;
61785;SDS011;47692;53.714;11.372;2023-02-04T05:42:16;2.30;;;1.00;;
61785;SDS011;47692;53.714;11.372;2023-02-04T05:44:41;1.13;;;0.70;;
61785;SDS011;47692;53.714;11.372;2023-02-04T05:47:07;1.30;;;0.77;;
61785;SDS011;47692;53.714;11.372;2023-02-04T05:49:32;1.40;;;0.80;;
61785;SDS011;47692;53.714;11.372;2023-02-04T05:51:57;0.93;;;0.80;;
61785;SDS011;47692;53.714;11.372;2023-02-04T05:54:23;1.88;;;0.90;;
61785;SDS011;47692;53.714;11.372;2023-02-04T05:56:48;1.45;;;1.00;;
61785;SDS011;47692;53.714;11.372;2023-02-04T05:59:15;3.00;;;0.85;;
61785;SDS011;47692;53.714;11.372;2023-02-04T06:01:41;2.17;;;1.10;;
61785;SDS011;47692;53.714;11.372;2023-02-04T06:04:06;1.73;;;1.08;;
61785;SDS011;47692;53.714;11.372;2023-02-04T06:06:31;1.55;;;1.02;;
61785;SDS011;47692;53.714;11.372;2023-02-04T06:08:56;1.63;;;0.98;;
61785;SDS011;47692;53.714;11.372;2023-02-04T06:11:22;2.65;;;0.93;;
61785;SDS011;47692;53.714;11.372;2023-02-04T06:13:47;1.80;;;0.80;;
61785;SDS011;47692;53.714;11.372;2023-02-04T06:16:12;1.50;;;0.80;;
61785;SDS011;47692;53.714;11.372;2023-02-04T06:18:38;1.80;;;0.88;;
61785;SDS011;47692;53.714;11.372;2023-02-04T06:21:03;2.83;;;0.90;;
61785;SDS011;47692;53.714;11.372;2023-02-04T06:23:29;1.85;;;0.90;;
61785;SDS011;47692;53.714;11.372;2023-02-04T06:25:55;1.75;;;0.82;;
61785;SDS011;47692;53.714;11.372;2023-02-04T06:28:20;4.60;;;1.05;;
61785;SDS011;47692;53.714;11.372;2023-02-04T06:30:45;2.47;;;0.93;;
61785;SDS011;47692;53.714;11.372;2023-02-04T06:33:11;0.95;;;0.77;;
61785;SDS011;47692;53.714;11.372;2023-02-04T06:35:36;5.30;;;0.90;;
61785;SDS011;47692;53.714;11.372;2023-02-04T06:38:01;2.60;;;0.95;;
61785;SDS011;47692;53.714;11.372;2023-02-04T06:40:26;1.25;;;0.63;;
61785;SDS011;47692;53.714;11.372;2023-02-04T06:42:52;2.75;;;1.20;;
61785;SDS011;47692;53.714;11.372;2023-02-04T06:45:17;2.00;;;0.98;;
61785;SDS011;47692;53.714;11.372;2023-02-04T06:47:42;1.42;;;1.00;;
61785;SDS011;47692;53.714;11.372;2023-02-04T06:50:08;2.83;;;0.98;;
61785;SDS011;47692;53.714;11.372;2023-02-04T06:52:34;1.10;;;0.70;;
61785;SDS011;47692;53.714;11.372;2023-02-04T06:54:59;3.53;;;1.30;;
61785;SDS011;47692;53.714;11.372;2023-02-04T06:57:24;4.38;;;2.10;;
61785;SDS011;47692;53.714;11.372;2023-02-04T06:59:50;5.20;;;2.42;;
61785;SDS011;47692;53.714;11.372;2023-02-04T07:02:15;3.90;;;1.70;;
61785;SDS011;47692;53.714;11.372;2023-02-04T07:04:40;3.45;;;1.45;;
61785;SDS011;47692;53.714;11.372;2023-02-04T07:07:07;2.65;;;1.25;;
61785;SDS011;47692;53.714;11.372;2023-02-04T07:09:34;1.83;;;0.98;;
61785;SDS011;47692;53.714;11.372;2023-02-04T07:11:59;3.22;;;1.25;;
61785;SDS011;47692;53.714;11.372;2023-02-04T07:14:24;1.95;;;1.00;;
61785;SDS011;47692;53.714;11.372;2023-02-04T07:16:50;1.50;;;1.00;;
61785;SDS011;47692;53.714;11.372;2023-02-04T07:19:15;3.60;;;1.15;;
61785;SDS011;47692;53.714;11.372;2023-02-04T07:21:40;1.90;;;0.95;;
61785;SDS011;47692;53.714;11.372;2023-02-04T07:24:05;2.28;;;1.30;;
61785;SDS011;47692;53.714;11.372;2023-02-04T07:26:31;4.80;;;1.25;;
61785;SDS011;47692;53.714;11.372;2023-02-04T07:28:58;4.47;;;1.30;;
61785;SDS011;47692;53.714;11.372;2023-02-04T07:31:23;1.70;;;1.10;;
61785;SDS011;47692;53.714;11.372;2023-02-04T07:33:48;2.70;;;1.17;;
61785;SDS011;47692;53.714;11.372;2023-02-04T07:36:14;3.35;;;1.27;;
61785;SDS011;47692;53.714;11.372;2023-02-04T07:38:39;4.85;;;1.50;;
61785;SDS011;47692;53.714;11.372;2023-02-04T07:41:04;2.83;;;1.42;;
61785;SDS011;47692;53.714;11.372;2023-02-04T07:43:29;1.83;;;1.40;;
61785;SDS011;47692;53.714;11.372;2023-02-04T07:45:55;3.35;;;1.67;;
61785;SDS011;47692;53.714;11.372;2023-02-04T07:48:20;2.75;;;1.20;;
61785;SDS011;47692;53.714;11.372;2023-02-04T07:50:45;4.53;;;1.35;;
61785;SDS011;47692;53.714;11.372;2023-02-04T07:53:11;2.38;;;1.48;;
61785;SDS011;47692;53.714;11.372;2023-02-04T07:55:36;3.90;;;1.70;;
61785;SDS011;47692;53.714;11.372;2023-02-04T07:58:02;5.78;;;1.90;;
61785;SDS011;47692;53.714;11.372;2023-02-04T08:00:27;4.30;;;1.77;;
61785;SDS011;47692;53.714;11.372;2023-02-04T08:02:53;2.38;;;1.70;;
61785;SDS011;47692;53.714;11.372;2023-02-04T08:05:18;5.40;;;2.20;;
61785;SDS011;47692;53.714;11.372;2023-02-04T08:07:43;2.95;;;1.60;;
61785;SDS011;47692;53.714;11.372;2023-02-04T08:10:10;3.63;;;2.15;;
61785;SDS011;47692;53.714;11.372;2023-02-04T08:12:35;3.58;;;1.85;;
61785;SDS011;47692;53.714;11.372;2023-02-04T08:15:01;4.68;;;2.25;;
61785;SDS011;47692;53.714;11.372;2023-02-04T08:17:27;4.32;;;2.10;;
61785;SDS011;47692;53.714;11.372;2023-02-04T08:19:52;3.63;;;2.10;;
61785;SDS011;47692;53.714;11.372;2023-02-04T08:22:17;3.35;;;1.63;;
61785;SDS011;47692;53.714;11.372;2023-02-04T08:24:43;3.45;;;1.60;;
61785;SDS011;47692;53.714;11.372;2023-02-04T08:27:08;2.25;;;1.48;;
61785;SDS011;47692;53.714;11.372;2023-02-04T08:29:34;4.35;;;1.65;;
61785;SDS011;47692;53.714;11.372;2023-02-04T08:31:59;3.88;;;1.50;;
61785;SDS011;47692;53.714;11.372;2023-02-04T08:34:24;3.78;;;2.05;;
61785;SDS011;47692;53.714;11.372;2023-02-04T08:36:50;3.15;;;1.58;;
61785;SDS011;47692;53.714;11.372;2023-02-04T08:39:15;3.83;;;2.28;;
61785;SDS011;47692;53.714;11.372;2023-02-04T08:41:40;2.60;;;1.70;;
61785;SDS011;47692;53.714;11.372;2023-02-04T08:44:06;3.00;;;1.83;;
61785;SDS011;47692;53.714;11.372;2023-02-04T08:46:31;2.60;;;1.88;;
61785;SDS011;47692;53.714;11.372;2023-02-04T08:48:56;4.72;;;2.28;;
61785;SDS011;47692;53.714;11.372;2023-02-04T08:51:22;3.05;;;1.67;;
61785;SDS011;47692;53.714;11.372;2023-02-04T08:53:47;3.33;;;1.63;;
61785;SDS011;47692;53.714;11.372;2023-02-04T08:56:12;3.33;;;1.92;;
61785;SDS011;47692;53.714;11.372;2023-02-04T08:58:41;3.20;;;1.60;;
61785;SDS011;47692;53.714;11.372;2023-02-04T09:01:07;4.28;;;2.30;;
61785;SDS011;47692;53.714;11.372;2023-02-04T09:03:35;2.95;;;2.08;;
61785;SDS011;47692;53.714;11.372;2023-02-04T09:06:01;3.38;;;1.90;;
61785;SDS011;47692;53.714;11.372;2023-02-04T09:08:26;4.20;;;1.85;;
61785;SDS011;47692;53.714;11.372;2023-02-04T09:10:51;3.90;;;1.90;;
61785;SDS011;47692;53.714;11.372;2023-02-04T09:13:16;3.78;;;1.98;;
61785;SDS011;47692;53.714;11.372;2023-02-04T09:15:42;3.67;;;1.67;;
61785;SDS011;47692;53.714;11.372;2023-02-04T09:18:07;3.47;;;1.88;;
61785;SDS011;47692;53.714;11.372;2023-02-04T09:20:40;3.08;;;1.80;;
61785;SDS011;47692;53.714;11.372;2023-02-04T09:23:05;2.53;;;1.25;;
61785;SDS011;47692;53.714;11.372;2023-02-04T09:25:33;3.33;;;2.00;;
61785;SDS011;47692;53.714;11.372;2023-02-04T09:27:58;3.75;;;1.80;;
61785;SDS011;47692;53.714;11.372;2023-02-04T09:30:24;4.60;;;2.03;;
61785;SDS011;47692;53.714;11.372;2023-02-04T09:32:49;5.30;;;2.50;;
61785;SDS011;47692;53.714;11.372;2023-02-04T09:35:14;4.45;;;2.33;;
61785;SDS011;47692;53.714;11.372;2023-02-04T09:37:40;3.08;;;2.13;;
61785;SDS011;47692;53.714;11.372;2023-02-04T09:40:05;3.45;;;2.05;;
61785;SDS011;47692;53.714;11.372;2023-02-04T09:42:30;5.30;;;2.22;;
61785;SDS011;47692;53.714;11.372;2023-02-04T09:44:56;4.53;;;1.85;;
61785;SDS011;47692;53.714;11.372;2023-02-04T09:47:22;5.10;;;2.15;;
61785;SDS011;47692;53.714;11.372;2023-02-04T09:49:50;6.00;;;1.90;;
61785;SDS011;47692;53.714;11.372;2023-02-04T09:52:15;3.28;;;1.80;;
61785;SDS011;47692;53.714;11.372;2023-02-04T09:54:42;2.63;;;1.42;;
61785;SDS011;47692;53.714;11.372;2023-02-04T09:57:16;2.05;;;1.60;;
61785;SDS011;47692;53.714;11.372;2023-02-04T09:59:43;2.55;;;1.40;;
61785;SDS011;47692;53.714;11.372;2023-02-04T10:02:20;1.92;;;1.38;;
61785;SDS011;47692;53.714;11.372;2023-02-04T10:04:48;2.63;;;1.38;;
61785;SDS011;47692;53.714;11.372;2023-02-04T10:07:16;4.43;;;1.50;;
61785;SDS011;47692;53.714;11.372;2023-02-04T10:09:46;2.88;;;1.30;;
61785;SDS011;47692;53.714;11.372;2023-02-04T10:12:12;2.40;;;1.38;;
61785;SDS011;47692;53.714;11.372;2023-02-04T10:14:38;2.35;;;1.58;;
61785;SDS011;47692;53.714;11.372;2023-02-04T10:17:04;3.00;;;1.75;;
61785;SDS011;47692;53.714;11.372;2023-02-04T10:19:32;4.82;;;1.80;;
61785;SDS011;47692;53.714;11.372;2023-02-04T10:21:57;3.65;;;1.52;;
61785;SDS011;47692;53.714;11.372;2023-02-04T10:24:24;1.83;;;1.20;;
61785;SDS011;47692;53.714;11.372;2023-02-04T10:26:52;3.63;;;1.67;;
61785;SDS011;47692;53.714;11.372;2023-02-04T10:29:19;3.50;;;2.05;;
61785;SDS011;47692;53.714;11.372;2023-02-04T10:31:46;2.92;;;1.83;;
61785;SDS011;47692;53.714;11.372;2023-02-04T10:34:14;3.10;;;1.90;;
61785;SDS011;47692;53.714;11.372;2023-02-04T10:36:43;5.28;;;1.60;;
61785;SDS011;47692;53.714;11.372;2023-02-04T10:41:44;4.22;;;2.17;;
61785;SDS011;47692;53.714;11.372;2023-02-04T10:44:15;3.55;;;1.80;;
61785;SDS011;47692;53.714;11.372;2023-02-04T10:46:42;4.47;;;1.80;;
61785;SDS011;47692;53.714;11.372;2023-02-04T10:49:47;3.35;;;1.90;;
61785;SDS011;47692;53.714;11.372;2023-02-04T10:54:28;4.32;;;1.52;;
61785;SDS011;47692;53.714;11.372;2023-02-04T10:57:42;2.70;;;1.80;;
61785;SDS011;47692;53.714;11.372;2023-02-04T10:59:52;4.15;;;1.50;;
61785;SDS011;47692;53.714;11.372;2023-02-04T11:04:57;4.30;;;1.98;;
61785;SDS011;47692;53.714;11.372;2023-02-04T11:07:22;5.00;;;2.30;;
61785;SDS011;47692;53.714;11.372;2023-02-04T11:09:48;4.22;;;2.35;;
61785;SDS011;47692;53.714;11.372;2023-02-04T11:15:02;3.55;;;2.13;;
61785;SDS011;47692;53.714;11.372;2023-02-04T11:17:29;3.80;;;1.90;;
61785;SDS011;47692;53.714;11.372;2023-02-04T11:19:55;3.30;;;1.63;;
61785;SDS011;47692;53.714;11.372;2023-02-04T11:25:29;2.60;;;1.88;;
61785;SDS011;47692;53.714;11.372;2023-02-04T11:27:59;4.50;;;1.70;;
61785;SDS011;47692;53.714;11.372;2023-02-04T11:30:29;4.70;;;1.55;;
61785;SDS011;47692;53.714;11.372;2023-02-04T11:33:03;2.92;;;1.40;;
61785;SDS011;47692;53.714;11.372;2023-02-04T11:35:31;4.13;;;1.52;;
61785;SDS011;47692;53.714;11.372;2023-02-04T11:37:57;4.28;;;1.42;;
61785;SDS011;47692;53.714;11.372;2023-02-04T11:40:26;2.22;;;1.27;;
61785;SDS011;47692;53.714;11.372;2023-02-04T11:42:55;2.42;;;1.55;;
61785;SDS011;47692;53.714;11.372;2023-02-04T11:47:57;2.75;;;1.52;;
61785;SDS011;47692;53.714;11.372;2023-02-04T11:53:02;1.48;;;0.50;;
61785;SDS011;47692;53.714;11.372;2023-02-04T11:55:28;2.92;;;0.80;;
61785;SDS011;47692;53.714;11.372;2023-02-04T11:57:55;2.50;;;0.65;;
61785;SDS011;47692;53.714;11.372;2023-02-04T12:00:25;0.82;;;0.60;;
61785;SDS011;47692;53.714;11.372;2023-02-04T12:05:21;2.80;;;0.88;;
61785;SDS011;47692;53.714;11.372;2023-02-04T12:07:47;2.22;;;0.90;;
61785;SDS011;47692;53.714;11.372;2023-02-04T12:12:47;2.15;;;1.50;;
61785;SDS011;47692;53.714;11.372;2023-02-04T12:15:19;2.80;;;1.23;;
61785;SDS011;47692;53.714;11.372;2023-02-04T12:18:00;3.95;;;1.30;;
61785;SDS011;47692;53.714;11.372;2023-02-04T12:20:26;2.72;;;1.30;;
61785;SDS011;47692;53.714;11.372;2023-02-04T12:22:51;2.20;;;1.17;;
61785;SDS011;47692;53.714;11.372;2023-02-04T12:25:16;2.58;;;1.45;;
61785;SDS011;47692;53.714;11.372;2023-02-04T12:27:43;2.78;;;1.10;;
61785;SDS011;47692;53.714;11.372;2023-02-04T12:30:09;3.97;;;0.93;;
61785;SDS011;47692;53.714;11.372;2023-02-04T12:32:36;4.65;;;1.13;;
61785;SDS011;47692;53.714;11.372;2023-02-04T12:35:01;2.17;;;0.90;;
61785;SDS011;47692;53.714;11.372;2023-02-04T12:37:26;4.47;;;1.13;;
61785;SDS011;47692;53.714;11.372;2023-02-04T12:39:52;1.50;;;0.98;;
61785;SDS011;47692;53.714;11.372;2023-02-04T12:42:17;1.15;;;0.80;;
61785;SDS011;47692;53.714;11.372;2023-02-04T12:44:42;4.18;;;0.80;;
61785;SDS011;47692;53.714;11.372;2023-02-04T12:47:08;1.83;;;0.70;;
61785;SDS011;47692;53.714;11.372;2023-02-04T12:49:33;2.67;;;0.77;;
61785;SDS011;47692;53.714;11.372;2023-02-04T12:51:58;0.90;;;0.50;;
61785;SDS011;47692;53.714;11.372;2023-02-04T12:54:26;2.22;;;1.00;;
61785;SDS011;47692;53.714;11.372;2023-02-04T12:56:51;4.25;;;1.30;;
61785;SDS011;47692;53.714;11.372;2023-02-04T12:59:17;4.85;;;1.20;;
61785;SDS011;47692;53.714;11.372;2023-02-04T13:01:43;2.33;;;0.90;;
61785;SDS011;47692;53.714;11.372;2023-02-04T13:04:08;3.15;;;1.02;;
61785;SDS011;47692;53.714;11.372;2023-02-04T13:06:33;2.90;;;0.80;;
61785;SDS011;47692;53.714;11.372;2023-02-04T13:08:59;2.88;;;0.90;;
61785;SDS011;47692;53.714;11.372;2023-02-04T13:11:24;2.47;;;0.80;;
61785;SDS011;47692;53.714;11.372;2023-02-04T13:13:49;0.80;;;0.60;;
61785;SDS011;47692;53.714;11.372;2023-02-04T13:16:15;2.00;;;0.80;;
61785;SDS011;47692;53.714;11.372;2023-02-04T13:18:43;1.25;;;0.70;;
61785;SDS011;47692;53.714;11.372;2023-02-04T13:21:08;1.40;;;0.68;;
61785;SDS011;47692;53.714;11.372;2023-02-04T13:23:33;3.67;;;1.02;;
61785;SDS011;47692;53.714;11.372;2023-02-04T13:25:59;2.65;;;0.98;;
61785;SDS011;47692;53.714;11.372;2023-02-04T13:28:25;2.22;;;0.80;;
61785;SDS011;47692;53.714;11.372;2023-02-04T13:30:50;2.53;;;0.77;;
61785;SDS011;47692;53.714;11.372;2023-02-04T13:33:15;2.25;;;1.00;;
61785;SDS011;47692;53.714;11.372;2023-02-04T13:35:41;2.75;;;0.88;;
61785;SDS011;47692;53.714;11.372;2023-02-04T13:38:06;1.02;;;0.65;;
61785;SDS011;47692;53.714;11.372;2023-02-04T13:40:31;2.17;;;0.70;;
61785;SDS011;47692;53.714;11.372;2023-02-04T13:42:56;2.50;;;0.95;;
61785;SDS011;47692;53.714;11.372;2023-02-04T13:45:22;1.90;;;1.08;;
61785;SDS011;47692;53.714;11.372;2023-02-04T13:47:47;2.85;;;1.00;;
61785;SDS011;47692;53.714;11.372;2023-02-04T13:50:13;3.08;;;1.05;;
61785;SDS011;47692;53.714;11.372;2023-02-04T13:52:39;1.65;;;0.88;;
61785;SDS011;47692;53.714;11.372;2023-02-04T13:55:04;2.55;;;1.20;;
61785;SDS011;47692;53.714;11.372;2023-02-04T13:57:30;2.55;;;0.93;;
61785;SDS011;47692;53.714;11.372;2023-02-04T13:59:56;2.00;;;1.05;;
61785;SDS011;47692;53.714;11.372;2023-02-04T14:02:22;2.65;;;0.77;;
61785;SDS011;47692;53.714;11.372;2023-02-04T14:04:47;2.17;;;0.98;;
61785;SDS011;47692;53.714;11.372;2023-02-04T14:07:13;2.47;;;1.10;;
61785;SDS011;47692;53.714;11.372;2023-02-04T14:09:39;1.40;;;0.80;;
61785;SDS011;47692;53.714;11.372;2023-02-04T14:12:04;2.05;;;1.08;;
61785;SDS011;47692;53.714;11.372;2023-02-04T14:14:29;1.75;;;0.93;;
61785;SDS011;47692;53.714;11.372;2023-02-04T14:16:55;2.28;;;1.00;;
61785;SDS011;47692;53.714;11.372;2023-02-04T14:19:20;2.47;;;0.90;;
61785;SDS011;47692;53.714;11.372;2023-02-04T14:21:45;3.45;;;0.90;;
61785;SDS011;47692;53.714;11.372;2023-02-04T14:24:12;1.17;;;0.82;;
61785;SDS011;47692;53.714;11.372;2023-02-04T14:26:37;3.63;;;1.25;;
61785;SDS011;47692;53.714;11.372;2023-02-04T14:29:03;2.95;;;2.20;;
61785;SDS011;47692;53.714;11.372;2023-02-04T14:31:28;1.25;;;0.80;;
61785;SDS011;47692;53.714;11.372;2023-02-04T14:33:54;1.38;;;0.68;;
61785;SDS011;47692;53.714;11.372;2023-02-04T14:36:20;1.65;;;0.65;;
61785;SDS011;47692;53.714;11.372;2023-02-04T14:38:46;1.23;;;0.80;;
61785;SDS011;47692;53.714;11.372;2023-02-04T14:41:11;1.17;;;0.80;;
61785;SDS011;47692;53.714;11.372;2023-02-04T14:43:40;1.90;;;0.80;;
61785;SDS011;47692;53.714;11.372;2023-02-04T14:46:05;2.20;;;0.77;;
61785;SDS011;47692;53.714;11.372;2023-02-04T14:48:31;4.93;;;1.15;;
61785;SDS011;47692;53.714;11.372;2023-02-04T14:50:56;2.17;;;0.95;;
61785;SDS011;47692;53.714;11.372;2023-02-04T14:53:21;2.25;;;0.98;;